createdAt,value
2022-08-26T00:00:25.106Z,100009.09
2022-08-26T00:00:57.653Z,100006.34
2022-08-26T00:01:32.490Z,100010.25
2022-08-26T00:02:07.472Z,100008.66
2022-08-26T00:02:42.748Z,100000.75
2022-08-26T00:03:15.682Z,100007.44
2022-08-26T00:03:51.619Z,99998.38
2022-08-26T00:04:25.842Z,100005.03
2022-08-26T00:04:58.279Z,100008.13
2022-08-26T00:05:33.242Z,100011.69
2022-08-26T00:06:06.022Z,100015.59
2022-08-26T00:06:38.544Z,100011.25
2022-08-26T00:07:17.576Z,100005.75
2022-08-26T00:07:50.412Z,100006.09
2022-08-26T00:08:23.637Z,100010.00
2022-08-26T00:08:58.428Z,100015.50
2022-08-26T00:09:30.745Z,100009.22
2022-08-26T00:10:05.839Z,100007.59
2022-08-26T00:10:38.822Z,100006.03
2022-08-26T00:11:14.108Z,100004.09
2022-08-26T00:11:47.252Z,100005.22
2022-08-26T00:12:19.546Z,100002.47
2022-08-26T00:13:07.499Z,99996.41
2022-08-26T00:13:41.470Z,100003.88
2022-08-26T00:14:20.591Z,100007.78
2022-08-26T00:14:55.427Z,100005.03
2022-08-26T00:15:27.981Z,100007.00
2022-08-26T00:16:01.250Z,99998.75
2022-08-26T00:16:37.294Z,100001.50
2022-08-26T00:17:13.658Z,99994.75
2022-08-26T00:17:50.139Z,99999.91
2022-08-26T00:18:24.969Z,100001.84
2022-08-26T00:18:58.225Z,99997.50
2022-08-26T00:19:30.394Z,99998.31
2022-08-26T00:20:06.059Z,100002.66
2022-08-26T00:20:39.986Z,100001.84
2022-08-26T00:21:15.444Z,100006.91
2022-08-26T00:21:51.556Z,99996.34
2022-08-26T00:22:23.726Z,100002.19
2022-08-26T00:22:56.967Z,99998.31
2022-08-26T00:23:31.769Z,99996.34
2022-08-26T00:24:04.143Z,99999.44
2022-08-26T00:24:36.417Z,100002.19
2022-08-26T00:25:10.280Z,99998.66
2022-08-26T00:25:44.982Z,99997.84
2022-08-26T00:26:17.661Z,100003.72
2022-08-26T00:26:50.788Z,99993.53
2022-08-26T00:27:26.506Z,100002.94
2022-08-26T00:28:01.241Z,99995.41
2022-08-26T00:28:34.130Z,100000.91
2022-08-26T00:29:09.432Z,100000.91
2022-08-26T00:29:41.667Z,99998.50
2022-08-26T00:30:22.746Z,100002.84
2022-08-26T00:30:56.359Z,99999.22
2022-08-26T00:31:28.917Z,99998.03
2022-08-26T00:32:06.682Z,99998.41
2022-08-26T00:32:38.986Z,99992.91
2022-08-26T00:33:14.778Z,99996.47
2022-08-26T00:33:49.532Z,99995.66
2022-08-26T00:34:22.002Z,99998.41
2022-08-26T00:34:54.299Z,99998.41
2022-08-26T00:35:28.297Z,99998.41
2022-08-26T00:36:03.186Z,99996.81
2022-08-26T00:36:36.840Z,99991.66
2022-08-26T00:37:10.962Z,99992.81
2022-08-26T00:37:49.630Z,99996.75
2022-08-26T00:38:22.951Z,99993.19
2022-08-26T00:38:55.148Z,99992.38
2022-08-26T00:39:30.015Z,99994.34
2022-08-26T00:40:05.244Z,99990.00
2022-08-26T00:40:44.023Z,99992.75
2022-08-26T00:41:22.049Z,99986.00
2022-08-26T00:41:54.339Z,99996.22
2022-08-26T00:42:27.803Z,99991.84
2022-08-26T00:43:03.360Z,99991.06
2022-08-26T00:43:46.184Z,99987.88
2022-08-26T00:44:54.799Z,99990.19
2022-08-26T00:45:27.243Z,99988.22
2022-08-26T00:46:08.972Z,99987.44
2022-08-26T00:46:46.876Z,99990.56
2022-08-26T00:47:24.710Z,99994.88
2022-08-26T00:48:02.497Z,99995.59
2022-08-26T00:48:40.136Z,99982.19
2022-08-26T00:49:19.308Z,99991.63
2022-08-26T00:49:54.749Z,99995.53
2022-08-26T00:50:31.749Z,99992.06
2022-08-26T00:51:12.542Z,99987.28
2022-08-26T00:51:48.184Z,99989.56
2022-08-26T00:52:21.962Z,99986.03
2022-08-26T00:53:00.764Z,99991.50
2022-08-26T00:53:39.727Z,99989.94
2022-08-26T00:54:15.034Z,99990.63
2022-08-26T00:54:55.744Z,99984.00
2022-08-26T00:55:37.726Z,99989.84
2022-08-26T00:56:18.529Z,99992.16
2022-08-26T00:56:53.709Z,99989.50
2022-08-26T00:57:26.392Z,99991.09
2022-08-26T00:58:01.568Z,99990.41
2022-08-26T00:58:36.882Z,99999.44
2022-08-26T00:59:12.151Z,99993.16
2022-08-26T00:59:49.671Z,100003.75
2022-08-26T01:00:26.114Z,99987.19
2022-08-26T01:00:58.391Z,99988.72
2022-08-26T01:01:33.273Z,99991.09
2022-08-26T01:02:06.168Z,99993.41
2022-08-26T01:02:38.895Z,99996.50
2022-08-26T01:03:25.354Z,99995.28
2022-08-26T01:04:01.021Z,99986.56
2022-08-26T01:04:37.224Z,99995.63
2022-08-26T01:05:14.209Z,99985.78
2022-08-26T01:05:46.922Z,99990.81
2022-08-26T01:06:19.926Z,99985.31
2022-08-26T01:06:57.468Z,99994.00
2022-08-26T01:07:31.811Z,99987.25
2022-08-26T01:08:04.339Z,99992.75
2022-08-26T01:08:39.406Z,99986.13
2022-08-26T01:09:11.974Z,99994.34
2022-08-26T01:09:44.326Z,99988.06
2022-08-26T01:10:22.054Z,99990.00
2022-08-26T01:10:55.803Z,99993.09
2022-08-26T01:11:30.994Z,99990.69
2022-08-26T01:12:04.202Z,99987.19
2022-08-26T01:12:41.163Z,99983.63
2022-08-26T01:13:16.392Z,99983.97
2022-08-26T01:13:54.922Z,99984.31
2022-08-26T01:14:31.454Z,99979.19
2022-08-26T01:15:07.018Z,99988.56
2022-08-26T01:15:47.625Z,99989.72
2022-08-26T01:16:20.007Z,99987.34
2022-08-26T01:16:55.194Z,99986.19
2022-08-26T01:17:28.108Z,99983.81
2022-08-26T01:18:03.023Z,99988.13
2022-08-26T01:18:38.710Z,99990.88
2022-08-26T01:19:19.641Z,99984.94
2022-08-26T01:19:59.789Z,99988.84
2022-08-26T01:20:41.587Z,99998.22
2022-08-26T01:21:21.153Z,99987.59
2022-08-26T01:22:00.859Z,99987.94
2022-08-26T01:22:44.447Z,99986.00
2022-08-26T01:23:17.585Z,99984.75
2022-08-26T01:23:58.223Z,99991.84
2022-08-26T01:24:31.138Z,99980.84
2022-08-26T01:25:05.877Z,99989.56
2022-08-26T01:25:46.428Z,99989.56
2022-08-26T01:26:22.813Z,99988.28
2022-08-26T01:26:58.339Z,99976.50
2022-08-26T01:27:35.489Z,99982.00
2022-08-26T01:28:13.882Z,99983.97
2022-08-26T01:28:50.678Z,99985.91
2022-08-26T01:29:27.958Z,99976.88
2022-08-26T01:30:02.580Z,99984.31
2022-08-26T01:30:37.764Z,99987.06
2022-08-26T01:31:17.689Z,99990.59
2022-08-26T01:31:55.409Z,99987.41
2022-08-26T01:32:28.849Z,99985.03
2022-08-26T01:33:05.210Z,99983.84
2022-08-26T01:33:46.739Z,99986.97
2022-08-26T01:34:22.341Z,99984.56
2022-08-26T01:34:54.682Z,99983.78
2022-08-26T01:35:30.404Z,99983.44
2022-08-26T01:36:03.561Z,99981.81
2022-08-26T01:36:37.197Z,99968.44
2022-08-26T01:37:16.722Z,99984.56
2022-08-26T01:37:55.039Z,99982.53
2022-08-26T01:38:30.852Z,99985.28
2022-08-26T01:39:05.919Z,99984.81
2022-08-26T01:39:40.188Z,99988.38
2022-08-26T01:40:22.981Z,99980.47
2022-08-26T01:40:55.191Z,99983.59
2022-08-26T01:41:29.116Z,99981.66
2022-08-26T01:42:06.192Z,99985.19
2022-08-26T01:42:43.300Z,99985.06
2022-08-26T01:43:22.405Z,99984.28
2022-08-26T01:43:57.924Z,99981.53
2022-08-26T01:44:36.383Z,99986.59
2022-08-26T01:45:18.500Z,99985.78
2022-08-26T01:45:54.791Z,99983.38
2022-08-26T01:46:29.914Z,99971.59
2022-08-26T01:47:06.547Z,99979.84
2022-08-26T01:47:40.007Z,99988.06
2022-08-26T01:48:17.971Z,99980.63
2022-08-26T01:48:54.743Z,99984.56
2022-08-26T01:49:27.643Z,99975.06
2022-08-26T01:50:04.222Z,99979.41
2022-08-26T01:50:39.993Z,99973.13
2022-08-26T01:51:14.077Z,99979.75
2022-08-26T01:51:50.419Z,99976.19
2022-08-26T01:52:28.440Z,99975.41
2022-08-26T01:53:06.688Z,99975.78
2022-08-26T01:53:41.742Z,99972.56
2022-08-26T01:54:16.875Z,99969.00
2022-08-26T01:54:54.585Z,99972.94
2022-08-26T01:55:32.167Z,99969.38
2022-08-26T01:56:09.094Z,99972.13
2022-08-26T01:56:41.588Z,99974.06
2022-08-26T01:57:15.701Z,99974.88
2022-08-26T01:57:56.266Z,99973.28
2022-08-26T01:58:39.156Z,99983.00
2022-08-26T01:59:14.525Z,99975.47
2022-08-26T01:59:52.158Z,99979.00
2022-08-26T02:00:25.731Z,99977.41
2022-08-26T02:01:00.197Z,99971.91
2022-08-26T02:01:37.931Z,99976.63
2022-08-26T02:02:10.354Z,99971.13
2022-08-26T02:02:44.214Z,99975.47
2022-08-26T02:03:18.352Z,99974.66
2022-08-26T02:04:06.193Z,99971.91
2022-08-26T02:04:43.576Z,99969.09
2022-08-26T02:05:18.046Z,99979.25
2022-08-26T02:05:56.830Z,99972.16
2022-08-26T02:06:31.010Z,99977.22
2022-08-26T02:07:05.326Z,99981.22
2022-08-26T02:07:42.531Z,99971.41
2022-08-26T02:08:24.633Z,99960.75
2022-08-26T02:09:00.946Z,99965.78
2022-08-26T02:09:38.417Z,99977.56
2022-08-26T02:10:13.945Z,99971.75
2022-08-26T02:10:46.537Z,99968.88
2022-08-26T02:11:21.737Z,99962.25
2022-08-26T02:11:54.656Z,99968.88
2022-08-26T02:12:27.802Z,99969.69
2022-08-26T02:13:02.894Z,99972.41
2022-08-26T02:13:40.080Z,99970.81
2022-08-26T02:14:18.758Z,99970.81
2022-08-26T02:14:54.355Z,99964.06
2022-08-26T02:15:26.794Z,99973.91
2022-08-26T02:16:04.661Z,99971.16
2022-08-26T02:16:43.115Z,99963.25
2022-08-26T02:17:17.783Z,99972.66
2022-08-26T02:17:55.962Z,99971.50
2022-08-26T02:18:33.188Z,99976.97
2022-08-26T02:19:09.578Z,99969.91
2022-08-26T02:19:50.550Z,99972.19
2022-08-26T02:20:22.904Z,99973.81
2022-08-26T02:21:00.456Z,99972.66
2022-08-26T02:21:33.229Z,99961.69
2022-08-26T02:22:08.685Z,99969.91
2022-08-26T02:22:45.217Z,99972.66
2022-08-26T02:23:20.282Z,99967.19
2022-08-26T02:23:59.725Z,99972.66
2022-08-26T02:24:47.476Z,99973.34
2022-08-26T02:25:27.998Z,99977.69
2022-08-26T02:26:07.270Z,99972.53
2022-08-26T02:26:42.447Z,99971.78
2022-08-26T02:27:15.587Z,99969.03
2022-08-26T02:27:48.010Z,99969.78
2022-08-26T02:28:26.731Z,99974.16
2022-08-26T02:29:02.765Z,99979.19
2022-08-26T02:29:41.466Z,99969.03
2022-08-26T02:30:20.398Z,99974.50
2022-08-26T02:30:54.873Z,99972.91
2022-08-26T02:31:27.930Z,99972.09
2022-08-26T02:32:03.221Z,99972.91
2022-08-26T02:32:35.630Z,99970.50
2022-08-26T02:33:08.211Z,99982.75
2022-08-26T02:33:43.368Z,99981.94
2022-08-26T02:34:19.570Z,99974.50
2022-08-26T02:34:52.208Z,99976.09
2022-08-26T02:35:27.006Z,99972.19
2022-08-26T02:35:59.315Z,99978.50
2022-08-26T02:36:31.566Z,99974.59
2022-08-26T02:37:09.797Z,99970.25
2022-08-26T02:37:42.632Z,99969.03
2022-08-26T02:38:15.259Z,99978.03
2022-08-26T02:38:52.609Z,99977.25
2022-08-26T02:39:24.841Z,99973.25
2022-08-26T02:39:57.080Z,99975.19
2022-08-26T02:40:35.764Z,99977.94
2022-08-26T02:41:08.869Z,99966.06
2022-08-26T02:41:45.084Z,99978.66
2022-08-26T02:42:20.072Z,99970.75
2022-08-26T02:42:56.052Z,99976.25
2022-08-26T02:43:31.310Z,99977.41
2022-08-26T02:44:07.863Z,99981.28
2022-08-26T02:44:40.264Z,99977.75
2022-08-26T02:45:13.123Z,99976.59
2022-08-26T02:45:51.547Z,99968.72
2022-08-26T02:46:27.827Z,99977.75
2022-08-26T02:47:02.373Z,99975.72
2022-08-26T02:47:37.591Z,99975.34
2022-08-26T02:48:13.169Z,99971.78
2022-08-26T02:48:45.634Z,99974.53
2022-08-26T02:49:20.491Z,99973.72
2022-08-26T02:49:52.710Z,99972.59
2022-08-26T02:50:26.007Z,99977.75
2022-08-26T02:51:02.024Z,99977.75
2022-08-26T02:51:34.385Z,99964.72
2022-08-26T02:52:06.619Z,99965.88
2022-08-26T02:52:41.403Z,99976.84
2022-08-26T02:53:14.747Z,99979.94
2022-08-26T02:53:49.682Z,99980.25
2022-08-26T02:54:26.035Z,99980.63
2022-08-26T02:54:58.230Z,99977.09
2022-08-26T02:55:31.059Z,99981.78
2022-08-26T02:56:06.900Z,99984.53
2022-08-26T02:56:39.298Z,99977.44
2022-08-26T02:57:11.907Z,99979.38
2022-08-26T02:57:46.862Z,99979.38
2022-08-26T02:58:19.505Z,99981.31
2022-08-26T02:58:51.744Z,99978.56
2022-08-26T02:59:28.769Z,99982.13
2022-08-26T03:00:02.647Z,99977.78
2022-08-26T03:00:37.550Z,99983.28
2022-08-26T03:01:22.882Z,99981.22
2022-08-26T03:01:56.343Z,99985.09
2022-08-26T03:02:28.928Z,99985.09
2022-08-26T03:03:03.796Z,99990.25
2022-08-26T03:03:36.115Z,99993.31
2022-08-26T03:04:12.178Z,99983.94
2022-08-26T03:04:57.476Z,99981.91
2022-08-26T03:05:33.614Z,99991.19
2022-08-26T03:06:09.355Z,99987.31
2022-08-26T03:06:41.859Z,99988.09
2022-08-26T03:07:16.731Z,99989.25
2022-08-26T03:07:49.554Z,99984.56
2022-08-26T03:08:24.545Z,99982.94
2022-08-26T03:09:00.095Z,99987.63
2022-08-26T03:09:32.385Z,99990.72
2022-08-26T03:10:08.217Z,99987.63
2022-08-26T03:10:43.599Z,99990.28
2022-08-26T03:11:15.790Z,99991.09
2022-08-26T03:11:48.138Z,99991.09
2022-08-26T03:12:23.958Z,99989.94
2022-08-26T03:12:58.245Z,99990.28
2022-08-26T03:13:30.469Z,99989.16
2022-08-26T03:14:06.498Z,99998.63
2022-08-26T03:14:38.658Z,99990.72
2022-08-26T03:15:18.020Z,99992.31
2022-08-26T03:15:53.402Z,99984.78
2022-08-26T03:16:25.636Z,99989.16
2022-08-26T03:17:05.197Z,99994.63
2022-08-26T03:17:40.884Z,99993.81
2022-08-26T03:18:13.420Z,99986.75
2022-08-26T03:18:52.079Z,99989.94
2022-08-26T03:19:28.480Z,99990.63
2022-08-26T03:20:01.530Z,99990.63
2022-08-26T03:20:35.345Z,99996.09
2022-08-26T03:21:11.594Z,99994.16
2022-08-26T03:21:44.167Z,100000.78
2022-08-26T03:22:16.336Z,99988.25
2022-08-26T03:22:51.607Z,99996.09
2022-08-26T03:23:23.749Z,99990.97
2022-08-26T03:23:58.580Z,99996.91
2022-08-26T03:24:36.136Z,99999.66
2022-08-26T03:25:11.292Z,99994.50
2022-08-26T03:25:43.445Z,99990.97
2022-08-26T03:26:20.343Z,99993.72
2022-08-26T03:26:53.257Z,99996.81
2022-08-26T03:27:25.421Z,99988.56
2022-08-26T03:28:00.149Z,99996.47
2022-08-26T03:28:33.224Z,99995.66
2022-08-26T03:29:20.943Z,100001.94
2022-08-26T03:30:08.138Z,99998.28
2022-08-26T03:30:45.773Z,99998.97
2022-08-26T03:31:18.233Z,99998.66
2022-08-26T03:31:53.734Z,100000.69
2022-08-26T03:32:27.130Z,100000.69
2022-08-26T03:32:59.604Z,100001.50
2022-08-26T03:33:34.413Z,100002.28
2022-08-26T03:34:06.614Z,99996.81
2022-08-26T03:34:38.816Z,99996.81
2022-08-26T03:35:13.739Z,100005.47
2022-08-26T03:35:47.952Z,100001.16
2022-08-26T03:36:25.822Z,100000.34
2022-08-26T03:36:58.163Z,100002.72
2022-08-26T03:37:30.371Z,100005.47
2022-08-26T03:38:07.352Z,100006.28
2022-08-26T03:38:39.942Z,100004.69
2022-08-26T03:39:13.935Z,100009.38
2022-08-26T03:39:51.601Z,100012.94
2022-08-26T03:40:24.858Z,99999.53
2022-08-26T03:41:01.302Z,100002.28
2022-08-26T03:41:37.530Z,100009.00
2022-08-26T03:42:10.777Z,100007.44
2022-08-26T03:42:45.284Z,100009.38
2022-08-26T03:43:21.675Z,100010.97
2022-08-26T03:43:56.447Z,100006.63
2022-08-26T03:44:31.818Z,100000.69
2022-08-26T03:45:08.811Z,100003.91
2022-08-26T03:45:41.266Z,100003.09
2022-08-26T03:46:15.066Z,100015.78
2022-08-26T03:46:49.956Z,100010.97
2022-08-26T03:47:22.220Z,100002.28
2022-08-26T03:47:54.639Z,100003.53
2022-08-26T03:48:32.575Z,100008.56
2022-08-26T03:49:06.099Z,100016.44
2022-08-26T03:49:39.022Z,100009.38
2022-08-26T03:50:14.214Z,100012.13
2022-08-26T03:50:48.930Z,100018.75
2022-08-26T03:51:24.265Z,100017.94
2022-08-26T03:51:56.484Z,100019.88
2022-08-26T03:52:30.979Z,100014.06
2022-08-26T03:53:07.466Z,100013.25
2022-08-26T03:53:45.839Z,100011.22
2022-08-26T03:54:18.421Z,100018.75
2022-08-26T03:54:53.190Z,100014.06
2022-08-26T03:55:32.027Z,100014.06
2022-08-26T03:56:04.744Z,100010.84
2022-08-26T03:56:37.242Z,100011.31
2022-08-26T03:57:14.795Z,100009.72
2022-08-26T03:57:48.947Z,100007.31
2022-08-26T03:58:22.139Z,100011.22
2022-08-26T03:58:57.637Z,100012.78
2022-08-26T03:59:30.761Z,100014.72
2022-08-26T04:00:05.523Z,100011.66
2022-08-26T04:00:43.561Z,100006.88
2022-08-26T04:01:16.287Z,100002.19
2022-08-26T04:01:48.677Z,100003.75
2022-08-26T04:02:23.595Z,100004.56
2022-08-26T04:02:56.351Z,100006.50
2022-08-26T04:03:43.640Z,100011.66
2022-08-26T04:04:18.516Z,100009.94
2022-08-26T04:04:55.052Z,100004.47
2022-08-26T04:05:27.890Z,100004.94
2022-08-26T04:06:03.082Z,100006.16
2022-08-26T04:06:38.144Z,100006.97
2022-08-26T04:07:12.834Z,100004.56
2022-08-26T04:07:45.699Z,100006.97
2022-08-26T04:08:18.229Z,100002.28
2022-08-26T04:08:53.102Z,99995.19
2022-08-26T04:09:26.257Z,100004.22
2022-08-26T04:10:04.154Z,100003.09
2022-08-26T04:10:38.462Z,100003.44
2022-08-26T04:11:16.928Z,99996.81
2022-08-26T04:11:52.078Z,99997.59
2022-08-26T04:12:25.582Z,99992.94
2022-08-26T04:13:02.593Z,99999.97
2022-08-26T04:13:35.093Z,99993.34
2022-08-26T04:14:09.693Z,99996.91
2022-08-26T04:14:44.718Z,99996.09
2022-08-26T04:15:20.334Z,99997.72
2022-08-26T04:15:52.498Z,99993.34
2022-08-26T04:16:27.302Z,99995.31
2022-08-26T04:17:00.039Z,99989.00
2022-08-26T04:17:32.275Z,99993.34
2022-08-26T04:18:07.358Z,99991.75
2022-08-26T04:18:40.594Z,99990.97
2022-08-26T04:19:20.075Z,99991.31
2022-08-26T04:19:55.867Z,99996.47
2022-08-26T04:20:29.584Z,99985.03
2022-08-26T04:21:01.829Z,99985.84
2022-08-26T04:21:38.376Z,99986.63
2022-08-26T04:22:11.255Z,99985.84
2022-08-26T04:22:43.606Z,99994.50
2022-08-26T04:23:19.932Z,99992.56
2022-08-26T04:23:52.854Z,99990.63
2022-08-26T04:24:26.557Z,99991.41
2022-08-26T04:25:06.819Z,99992.22
2022-08-26T04:25:39.097Z,99990.63
2022-08-26T04:26:12.757Z,99991.41
2022-08-26T04:26:47.775Z,99989.16
2022-08-26T04:27:20.051Z,99989.16
2022-08-26T04:27:52.547Z,99991.09
2022-08-26T04:28:27.317Z,99989.16
2022-08-26T04:28:59.610Z,99988.34
2022-08-26T04:29:34.951Z,99995.44
2022-08-26T04:30:09.593Z,99995.44
2022-08-26T04:30:41.886Z,99994.63
2022-08-26T04:31:20.368Z,99994.25
2022-08-26T04:31:55.644Z,99985.59
2022-08-26T04:32:30.689Z,99982.84
2022-08-26T04:33:04.825Z,99992.69
2022-08-26T04:33:47.639Z,99999.31
2022-08-26T04:34:25.096Z,99996.22
2022-08-26T04:35:01.019Z,99995.88
2022-08-26T04:35:35.202Z,99996.34
2022-08-26T04:36:10.735Z,99995.16
2022-08-26T04:36:43.415Z,99994.03
2022-08-26T04:37:16.494Z,99991.75
2022-08-26T04:37:52.179Z,99996.06
2022-08-26T04:38:24.402Z,99983.94
2022-08-26T04:38:57.179Z,99993.00
2022-08-26T04:39:32.081Z,99985.56
2022-08-26T04:40:10.157Z,99987.50
2022-08-26T04:40:46.810Z,99992.19
2022-08-26T04:41:22.455Z,99991.38
2022-08-26T04:41:55.267Z,99992.56
2022-08-26T04:42:27.519Z,99992.19
2022-08-26T04:43:02.583Z,99993.78
2022-08-26T04:43:34.847Z,99989.09
2022-08-26T04:44:07.143Z,99992.28
2022-08-26T04:44:41.906Z,99991.50
2022-08-26T04:45:14.360Z,99993.88
2022-08-26T04:45:46.859Z,99990.00
2022-08-26T04:46:24.765Z,99995.16
2022-08-26T04:46:57.230Z,99988.88
2022-08-26T04:47:32.314Z,99992.41
2022-08-26T04:48:07.395Z,99990.47
2022-08-26T04:48:43.334Z,99990.00
2022-08-26T04:49:18.026Z,99992.84
2022-08-26T04:49:51.871Z,99983.81
2022-08-26T04:50:26.606Z,99985.75
2022-08-26T04:51:02.018Z,99984.19
2022-08-26T04:51:34.877Z,99980.97
2022-08-26T04:52:07.020Z,99992.41
2022-08-26T04:52:42.803Z,99989.66
2022-08-26T04:53:15.073Z,99989.66
2022-08-26T04:53:47.203Z,99987.34
2022-08-26T04:54:22.090Z,99987.81
2022-08-26T04:54:54.250Z,99985.06
2022-08-26T04:55:38.209Z,99986.69
2022-08-26T04:56:14.737Z,99979.94
2022-08-26T04:56:49.634Z,99985.50
2022-08-26T04:57:25.297Z,99978.09
2022-08-26T04:57:58.035Z,99982.09
2022-08-26T04:58:30.209Z,99978.19
2022-08-26T04:59:07.728Z,99980.91
2022-08-26T04:59:49.538Z,99984.84
2022-08-26T05:00:22.309Z,99988.81
2022-08-26T05:00:59.128Z,99989.28
2022-08-26T05:01:31.740Z,99981.47
2022-08-26T05:02:04.547Z,99984.22
2022-08-26T05:02:41.017Z,99982.28
2022-08-26T05:03:15.433Z,99980.69
2022-08-26T05:03:48.215Z,99987.78
2022-08-26T05:04:23.472Z,99983.78
2022-08-26T05:04:55.762Z,99983.78
2022-08-26T05:05:28.078Z,99988.09
2022-08-26T05:06:07.016Z,99987.78
2022-08-26T05:06:42.091Z,99982.19
2022-08-26T05:07:17.683Z,99987.78
2022-08-26T05:07:50.021Z,99979.53
2022-08-26T05:08:23.277Z,99992.13
2022-08-26T05:08:58.150Z,99989.00
2022-08-26T05:09:30.719Z,99987.06
2022-08-26T05:10:04.087Z,99983.97
2022-08-26T05:10:48.401Z,99993.00
2022-08-26T05:11:21.451Z,99991.31
2022-08-26T05:11:54.545Z,99985.50
2022-08-26T05:12:29.305Z,99987.06
2022-08-26T05:13:03.556Z,99985.50
2022-08-26T05:13:45.886Z,99993.72
2022-08-26T05:14:19.833Z,99990.84
2022-08-26T05:14:52.734Z,99990.97
2022-08-26T05:15:27.471Z,99992.56
2022-08-26T05:16:03.468Z,99989.81
2022-08-26T05:16:40.606Z,99990.28
2022-08-26T05:17:14.941Z,99987.78
2022-08-26T05:17:50.517Z,99991.31
2022-08-26T05:18:30.100Z,99982.28
2022-08-26T05:19:03.092Z,99986.53
2022-08-26T05:19:38.591Z,99993.59
2022-08-26T05:20:15.176Z,99995.09
2022-08-26T05:20:53.954Z,99989.28
2022-08-26T05:21:29.201Z,99994.31
2022-08-26T05:22:03.958Z,99990.41
2022-08-26T05:22:36.468Z,99991.22
2022-08-26T05:23:08.883Z,99991.22
2022-08-26T05:23:43.832Z,99988.47
2022-08-26T05:24:18.058Z,99988.47
2022-08-26T05:24:52.850Z,99993.16
2022-08-26T05:25:59.144Z,99986.88
2022-08-26T05:26:32.828Z,99995.81
2022-08-26T05:27:11.803Z,99990.31
2022-08-26T05:27:44.803Z,99988.72
2022-08-26T05:28:18.725Z,99983.66
2022-08-26T05:28:54.694Z,99988.81
2022-08-26T05:29:27.185Z,99987.22
2022-08-26T05:30:00.000Z,99980.91
2022-08-26T05:30:35.957Z,99986.06
2022-08-26T05:31:16.461Z,99985.28
2022-08-26T05:31:56.041Z,99992.69
2022-08-26T05:32:28.331Z,99989.16
2022-08-26T05:33:02.043Z,99991.22
2022-08-26T05:33:37.598Z,99991.66
2022-08-26T05:34:13.693Z,99988.56
2022-08-26T05:34:48.915Z,99988.66
2022-08-26T05:35:29.228Z,99990.72
2022-08-26T05:36:07.661Z,99992.78
2022-08-26T05:36:44.011Z,99985.81
2022-08-26T05:37:16.719Z,99989.00
2022-08-26T05:37:49.486Z,99987.50
2022-08-26T05:38:25.170Z,99986.34
2022-08-26T05:39:04.824Z,99990.63
2022-08-26T05:39:36.967Z,99991.38
2022-08-26T05:40:12.773Z,99987.50
2022-08-26T05:40:47.283Z,99994.50
2022-08-26T05:41:25.067Z,99990.25
2022-08-26T05:42:01.402Z,99987.50
2022-08-26T05:42:35.163Z,99990.34
2022-08-26T05:43:10.602Z,99987.25
2022-08-26T05:43:45.479Z,99989.28
2022-08-26T05:44:19.047Z,99994.09
2022-08-26T05:44:56.354Z,99990.31
2022-08-26T05:45:28.682Z,99994.38
2022-08-26T05:46:06.893Z,99988.72
2022-08-26T05:46:44.884Z,99990.88
2022-08-26T05:47:17.136Z,99990.94
2022-08-26T05:47:51.766Z,99991.84
2022-08-26T05:48:26.873Z,99989.97
2022-08-26T05:48:59.704Z,99990.44
2022-08-26T05:49:34.954Z,99996.03
2022-08-26T05:50:16.226Z,99990.09
2022-08-26T05:50:50.596Z,99991.41
2022-08-26T05:51:26.108Z,99988.31
2022-08-26T05:51:58.449Z,99990.25
2022-08-26T05:52:33.157Z,99995.03
2022-08-26T05:53:06.603Z,100002.25
2022-08-26T05:53:41.149Z,99998.81
2022-08-26T05:54:21.771Z,99993.31
2022-08-26T05:54:54.716Z,100002.06
2022-08-26T05:55:26.878Z,99990.47
2022-08-26T05:56:02.128Z,99997.00
2022-08-26T05:56:36.912Z,99995.00
2022-08-26T05:57:12.243Z,99996.38
2022-08-26T05:57:44.778Z,99998.56
2022-08-26T05:58:21.727Z,99995.63
2022-08-26T05:58:55.060Z,99997.06
2022-08-26T05:59:27.326Z,99996.03
2022-08-26T06:00:02.340Z,99992.28
2022-08-26T06:00:45.276Z,99997.56
2022-08-26T06:01:21.407Z,100004.47
2022-08-26T06:01:57.362Z,99995.56
2022-08-26T06:02:30.412Z,99997.16
2022-08-26T06:03:05.311Z,99997.59
2022-08-26T06:03:39.612Z,99993.69
2022-08-26T06:04:14.608Z,99992.16
2022-08-26T06:04:47.288Z,99987.44
2022-08-26T06:05:19.694Z,99997.25
2022-08-26T06:05:57.177Z,99995.56
2022-08-26T06:06:33.651Z,99998.59
2022-08-26T06:07:06.590Z,99997.75
2022-08-26T06:07:56.881Z,99997.66
2022-08-26T06:08:31.646Z,99997.88
2022-08-26T06:09:06.583Z,99998.25
2022-08-26T06:09:44.607Z,99998.25
2022-08-26T06:10:33.604Z,99995.03
2022-08-26T06:11:18.692Z,99990.13
2022-08-26T06:11:54.048Z,99993.06
2022-08-26T06:12:28.871Z,99987.47
2022-08-26T06:13:04.716Z,99991.81
2022-08-26T06:13:46.694Z,99999.72
2022-08-26T06:14:20.577Z,99991.56
2022-08-26T06:14:55.481Z,99994.75
2022-08-26T06:15:27.760Z,99991.19
2022-08-26T06:16:03.277Z,99988.88
2022-08-26T06:16:43.912Z,99992.41
2022-08-26T06:17:16.746Z,99995.16
2022-08-26T06:17:52.529Z,99993.22
2022-08-26T06:18:27.587Z,99994.53
2022-08-26T06:19:10.870Z,99995.13
2022-08-26T06:19:46.211Z,99994.91
2022-08-26T06:20:18.558Z,99985.19
2022-08-26T06:20:57.683Z,99990.81
2022-08-26T06:21:32.525Z,99998.97
2022-08-26T06:22:27.722Z,99993.38
2022-08-26T06:23:15.011Z,99995.22
2022-08-26T06:24:04.146Z,99993.66
2022-08-26T06:24:51.543Z,99995.28
2022-08-26T06:25:38.955Z,99984.63
2022-08-26T06:26:12.040Z,99993.75
2022-08-26T06:26:57.305Z,99991.16
2022-08-26T06:27:32.580Z,99998.69
2022-08-26T06:28:05.789Z,99993.97
2022-08-26T06:28:40.606Z,99987.31
2022-08-26T06:29:24.451Z,99984.22
2022-08-26T06:29:59.528Z,99985.78
2022-08-26T06:30:32.346Z,99986.56
2022-08-26T06:31:06.284Z,99986.56
2022-08-26T06:31:41.238Z,99988.13
2022-08-26T06:32:13.422Z,99990.00
2022-08-26T06:32:45.797Z,99991.94
2022-08-26T06:33:21.689Z,99985.66
2022-08-26T06:33:54.372Z,99990.28
2022-08-26T06:34:30.351Z,99991.00
2022-08-26T06:35:06.334Z,99986.22
2022-08-26T06:35:45.773Z,99989.25
2022-08-26T06:36:22.195Z,99982.94
2022-08-26T06:36:58.021Z,99988.38
2022-08-26T06:37:30.200Z,99992.66
2022-08-26T06:38:04.957Z,99988.31
2022-08-26T06:38:37.318Z,99986.72
2022-08-26T06:39:14.743Z,99988.31
2022-08-26T06:39:47.079Z,99991.41
2022-08-26T06:40:26.466Z,99991.88
2022-08-26T06:40:59.830Z,99986.00
2022-08-26T06:41:34.948Z,99993.88
2022-08-26T06:42:11.985Z,99992.28
2022-08-26T06:42:49.559Z,99987.97
2022-08-26T06:43:23.883Z,99986.34
2022-08-26T06:44:00.502Z,99991.88
2022-08-26T06:44:32.812Z,99988.31
2022-08-26T06:45:05.939Z,99985.22
2022-08-26T06:45:41.282Z,99988.38
2022-08-26T06:46:17.348Z,99984.03
2022-08-26T06:46:52.215Z,99979.31
2022-08-26T06:47:26.325Z,99980.94
2022-08-26T06:47:58.802Z,99978.16
2022-08-26T06:48:33.846Z,99979.78
2022-08-26T06:49:06.247Z,99981.44
2022-08-26T06:49:44.337Z,99980.44
2022-08-26T06:50:16.751Z,99973.53
2022-08-26T06:50:51.698Z,99973.75
2022-08-26T06:51:26.629Z,99965.72
2022-08-26T06:51:59.323Z,99970.25
2022-08-26T06:52:34.993Z,99963.75
2022-08-26T06:53:08.252Z,99965.81
2022-08-26T06:53:45.702Z,99962.03
2022-08-26T06:54:18.398Z,99970.38
2022-08-26T06:54:53.230Z,99966.06
2022-08-26T06:55:26.944Z,99972.38
2022-08-26T06:55:59.363Z,99968.84